Time;durP1;ratioP1;P1;durP2;ratioP2;P2;SDS_P1;SDS_P2;PMS_P1;PMS_P2;Temp;Humidity;BMP_temperature;BMP_pressure;BME280_temperature;BME280_humidity;BME280_pressure;Samples;Min_cycle;Max_cycle;Signal;HPM_P1;HPM_P2
2022/01/30 00:00:00;;;;;;;2.05;1.42;;;11.90;54.80;;;;;;5076534;28;20118;-70
2022/01/30 00:02:27;;;;;;;1.60;0.90;;;11.90;54.60;;;;;;5094651;28;20026;-71
2022/01/30 00:04:52;;;;;;;1.65;1.13;;;11.90;54.60;;;;;;5094364;28;20059;-71
2022/01/30 00:07:18;;;;;;;1.80;1.05;;;11.90;54.60;;;;;;5076389;28;20059;-70
2022/01/30 00:09:45;;;;;;;1.10;0.82;;;11.90;54.50;;;;;;5094504;28;20032;-70
2022/01/30 00:12:15;;;;;;;0.85;0.65;;;12.00;54.50;;;;;;5094215;28;20028;-71
2022/01/30 00:14:41;;;;;;;1.80;1.23;;;12.00;54.60;;;;;;5094413;28;20032;-70
2022/01/30 00:17:16;;;;;;;2.00;1.10;;;12.00;54.40;;;;;;5076169;28;20024;-70
2022/01/30 00:19:58;;;;;;;1.30;0.90;;;12.00;54.20;;;;;;5076181;28;20135;-71
2022/01/30 00:25:00;;;;;;;1.23;0.95;;;12.10;54.10;;;;;;5094303;28;20378;-70
2022/01/30 00:27:44;;;;;;;2.15;0.98;;;12.10;54.00;;;;;;5076045;28;20463;-70
2022/01/30 00:30:13;;;;;;;1.65;1.02;;;12.10;54.10;;;;;;5093954;28;20073;-71
2022/01/30 00:32:38;;;;;;;2.05;1.25;;;12.10;54.00;;;;;;5094111;28;20426;-71
2022/01/30 00:35:05;;;;;;;2.67;1.40;;;12.20;53.90;;;;;;5093664;28;20060;-71
2022/01/30 00:37:31;;;;;;;1.35;1.02;;;12.20;53.70;;;;;;5093706;28;20063;-70
2022/01/30 00:39:56;;;;;;;1.98;1.05;;;12.10;53.80;;;;;;5093940;28;20056;-70
2022/01/30 00:42:23;;;;;;;1.63;1.45;;;12.20;53.80;;;;;;5094014;28;20031;-70
2022/01/30 00:44:49;;;;;;;1.10;1.00;;;12.20;53.70;;;;;;5075685;28;20074;-71
2022/01/30 00:47:15;;;;;;;1.83;1.20;;;12.20;53.70;;;;;;5075662;28;20378;-71
2022/01/30 00:49:41;;;;;;;1.48;1.05;;;12.20;53.80;;;;;;5093529;28;20031;-71
2022/01/30 00:52:10;;;;;;;1.10;0.70;;;12.20;53.70;;;;;;5075622;28;20077;-70
2022/01/30 00:54:36;;;;;;;3.22;1.30;;;12.20;53.70;;;;;;5075289;28;20035;-71
2022/01/30 00:57:03;;;;;;;1.83;1.08;;;12.20;53.80;;;;;;5075936;28;20161;-71
2022/01/30 00:59:28;;;;;;;4.20;0.90;;;12.20;53.80;;;;;;5093552;28;20036;-71
2022/01/30 01:01:54;;;;;;;1.95;1.15;;;12.20;53.90;;;;;;5093718;28;20024;-70
2022/01/30 01:04:20;;;;;;;2.63;1.17;;;12.20;53.90;;;;;;5093367;28;20031;-70
2022/01/30 01:06:49;;;;;;;1.20;0.90;;;12.20;53.90;;;;;;5093662;28;20039;-70
2022/01/30 01:09:16;;;;;;;2.45;1.23;;;12.20;53.90;;;;;;5093287;28;20020;-70
2022/01/30 01:25:20;;;;;;;3.75;0.85;;;12.20;54.10;;;;;;5093505;28;20031;-70
2022/01/30 01:27:46;;;;;;;0.75;0.68;;;12.20;54.70;;;;;;5093718;28;20024;-70
2022/01/30 01:30:12;;;;;;;1.15;0.60;;;12.10;54.90;;;;;;5093367;28;20016;-71
2022/01/30 01:32:38;;;;;;;1.13;0.82;;;12.10;55.10;;;;;;5093300;28;20103;-70
2022/01/30 01:35:04;;;;;;;3.92;0.75;;;12.00;55.10;;;;;;5075257;28;20058;-71
2022/01/30 01:37:30;;;;;;;1.15;0.80;;;12.00;55.80;;;;;;5075144;28;20073;-70
2022/01/30 01:39:56;;;;;;;1.08;0.80;;;11.90;55.70;;;;;;5093543;28;20028;-70
2022/01/30 01:42:24;;;;;;;2.13;0.70;;;11.90;55.60;;;;;;5093560;28;20024;-70
2022/01/30 01:44:53;;;;;;;3.72;0.80;;;11.90;55.60;;;;;;5075135;28;20123;-71
2022/01/30 01:47:22;;;;;;;1.35;0.73;;;11.80;55.70;;;;;;5094453;28;20016;-70
2022/01/30 01:49:50;;;;;;;0.98;0.80;;;11.80;55.90;;;;;;5079041;28;20085;-70
2022/01/30 01:54:50;;;;;;;1.30;0.73;;;11.80;56.20;;;;;;5097167;28;20028;-70
2022/01/30 01:57:16;;;;;;;0.80;0.70;;;11.70;56.20;;;;;;5078920;28;20035;-70
2022/01/30 01:59:41;;;;;;;0.50;0.50;;;11.70;56.20;;;;;;5096990;28;20024;-70
2022/01/30 02:02:07;;;;;;;1.52;0.80;;;11.70;56.30;;;;;;5096735;28;20433;-71
2022/01/30 02:04:34;;;;;;;1.20;0.60;;;11.70;56.30;;;;;;5096974;28;20027;-70
2022/01/30 02:07:21;;;;;;;1.13;0.70;;;11.70;56.30;;;;;;5078670;28;20111;-71
2022/01/30 02:09:46;;;;;;;0.50;0.50;;;11.70;56.30;;;;;;5096109;28;20391;-70
2022/01/30 02:12:18;;;;;;;0.60;0.60;;;11.70;56.20;;;;;;5078618;28;20024;-71
2022/01/30 02:15:05;;;;;;;2.13;1.10;;;11.80;56.30;;;;;;5096775;28;20455;-70
2022/01/30 02:25:58;;;;;;;1.23;0.65;;;11.80;55.90;;;;;;5096613;28;20386;-71
2022/01/30 02:28:26;;;;;;;0.82;0.57;;;11.90;56.00;;;;;;5077928;28;20042;-71
2022/01/30 02:31:01;;;;;;;0.82;0.60;;;11.90;55.90;;;;;;5078057;28;20363;-70
2022/01/30 02:33:27;;;;;;;0.60;0.40;;;11.80;56.30;;;;;;5096081;28;20048;-71
2022/01/30 02:35:53;;;;;;;1.20;0.55;;;11.80;56.40;;;;;;5096693;28;20443;-70
2022/01/30 02:38:21;;;;;;;5.00;0.77;;;11.90;56.40;;;;;;5096225;28;20490;-70
2022/01/30 02:40:49;;;;;;;0.68;0.60;;;11.80;56.70;;;;;;5078240;28;20031;-70
2022/01/30 02:43:18;;;;;;;0.55;0.50;;;11.80;57.60;;;;;;5096201;28;20451;-70
2022/01/30 02:45:50;;;;;;;0.65;0.52;;;11.80;58.20;;;;;;5096195;28;20031;-70
2022/01/30 02:48:19;;;;;;;0.70;0.52;;;11.70;58.20;;;;;;5078037;28;20490;-70
2022/01/30 02:51:07;;;;;;;0.98;0.65;;;11.70;58.20;;;;;;5096143;28;20016;-70
2022/01/30 02:53:38;;;;;;;0.93;0.40;;;11.70;58.80;;;;;;5095378;28;20024;-70
2022/01/30 02:56:04;;;;;;;0.77;0.40;;;11.60;58.20;;;;;;5078015;28;20051;-71
2022/01/30 02:58:30;;;;;;;1.08;0.60;;;11.60;58.30;;;;;;5095205;28;20213;-71
2022/01/30 03:00:55;;;;;;;1.88;0.63;;;11.60;58.30;;;;;;5077745;28;20451;-70
2022/01/30 03:03:21;;;;;;;0.57;0.40;;;11.50;58.30;;;;;;5077721;28;20110;-71
2022/01/30 03:05:47;;;;;;;0.60;0.60;;;11.50;58.30;;;;;;5095842;28;20063;-70
2022/01/30 03:08:12;;;;;;;0.57;0.40;;;11.50;58.30;;;;;;5095725;28;20031;-71
2022/01/30 03:10:38;;;;;;;1.73;0.68;;;11.50;58.30;;;;;;5095765;28;20020;-71
2022/01/30 03:13:06;;;;;;;0.95;0.40;;;11.50;57.90;;;;;;5095745;28;20467;-71
2022/01/30 03:15:32;;;;;;;1.98;0.40;;;11.50;57.80;;;;;;5077498;28;20055;-71
2022/01/30 03:17:57;;;;;;;1.00;0.47;;;11.60;57.60;;;;;;5077414;28;20427;-70
2022/01/30 03:20:23;;;;;;;1.63;0.50;;;11.60;57.50;;;;;;5077396;28;20024;-71
2022/01/30 03:22:49;;;;;;;7.47;1.08;;;11.60;57.30;;;;;;5077330;28;20365;-71
2022/01/30 03:25:15;;;;;;;0.75;0.40;;;11.60;58.00;;;;;;5095149;28;20060;-71
2022/01/30 03:27:41;;;;;;;0.65;0.40;;;11.70;59.00;;;;;;5095322;28;20034;-71
2022/01/30 03:30:13;;;;;;;1.63;0.43;;;11.60;58.60;;;;;;5094982;28;20100;-70
2022/01/30 03:32:39;;;;;;;0.32;0.32;;;11.50;58.50;;;;;;5095102;28;20052;-70
2022/01/30 03:35:05;;;;;;;7.13;0.40;;;11.50;58.60;;;;;;5095342;28;20024;-71
2022/01/30 03:37:31;;;;;;;9.57;0.90;;;11.50;59.10;;;;;;5094893;28;20406;-71
2022/01/30 03:39:57;;;;;;;1.20;0.50;;;11.50;60.60;;;;;;5095147;28;20061;-71
2022/01/30 03:42:23;;;;;;;3.25;0.50;;;11.40;62.90;;;;;;5076670;28;20028;-73
2022/01/30 03:44:49;;;;;;;0.25;0.25;;;11.30;63.50;;;;;;5076944;28;20126;-73
2022/01/30 03:47:14;;;;;;;0.38;0.30;;;11.20;64.20;;;;;;5076817;28;20534;-74
2022/01/30 03:49:40;;;;;;;1.50;0.35;;;11.10;64.40;;;;;;5076438;28;20035;-75
2022/01/30 03:52:07;;;;;;;2.13;0.30;;;11.00;64.70;;;;;;5076826;28;20020;-75
2022/01/30 03:54:33;;;;;;;0.88;0.40;;;11.00;65.10;;;;;;5076788;28;20093;-77
2022/01/30 03:56:59;;;;;;;1.30;0.50;;;10.90;65.80;;;;;;5076684;28;20062;-74
2022/01/30 03:59:25;;;;;;;3.03;0.50;;;10.80;65.40;;;;;;5076486;28;20060;-75
2022/01/30 04:01:51;;;;;;;1.20;0.30;;;10.70;65.60;;;;;;5094440;28;20485;-75
2022/01/30 04:04:16;;;;;;;1.38;0.40;;;10.70;66.10;;;;;;5094730;28;20085;-74
2022/01/30 04:06:42;;;;;;;0.88;0.40;;;10.60;66.50;;;;;;5094631;28;20047;-73
2022/01/30 04:09:08;;;;;;;1.00;0.50;;;10.60;67.10;;;;;;5094594;28;20031;-73
2022/01/30 04:11:34;;;;;;;0.43;0.40;;;10.60;67.40;;;;;;5094404;28;20024;-73
2022/01/30 04:14:00;;;;;;;0.30;0.30;;;10.50;67.20;;;;;;5094480;28;20020;-72
2022/01/30 04:16:26;;;;;;;0.47;0.38;;;10.50;67.30;;;;;;5094663;28;20374;-72
2022/01/30 04:18:52;;;;;;;0.30;0.30;;;10.50;67.40;;;;;;5076119;28;20093;-71
2022/01/30 04:21:18;;;;;;;2.50;0.70;;;10.40;67.50;;;;;;5094367;28;20031;-72
2022/01/30 04:23:44;;;;;;;0.82;0.40;;;10.40;67.50;;;;;;5076146;28;20020;-72
2022/01/30 04:26:10;;;;;;;0.73;0.50;;;10.30;67.40;;;;;;5076082;28;20504;-72
2022/01/30 04:28:36;;;;;;;1.02;0.60;;;10.30;67.30;;;;;;5075877;28;20122;-72
2022/01/30 04:31:02;;;;;;;2.10;0.50;;;10.30;67.10;;;;;;5075664;28;20124;-72
2022/01/30 04:33:28;;;;;;;2.15;0.70;;;10.30;67.30;;;;;;5093715;28;20126;-72
2022/01/30 04:35:56;;;;;;;3.15;0.90;;;10.20;66.70;;;;;;5094120;28;20081;-72
2022/01/30 04:38:30;;;;;;;5.45;1.00;;;10.20;66.50;;;;;;5075856;28;20482;-71
2022/01/30 04:57:19;;;;;;;4.18;1.17;;;10.00;64.50;;;;;;5093756;28;20035;-72
2022/01/30 05:05:51;;;;;;;7.57;1.80;;;9.90;64.70;;;;;;5093523;28;20031;-71
2022/01/30 05:07:44;;;;;;;5.45;1.40;;;9.90;64.40;;;;;;5082177;28;20031;-71
2022/01/30 05:10:10;;;;;;;4.25;1.15;;;9.90;64.60;;;;;;5075496;28;20036;-71
2022/01/30 05:12:44;;;;;;;6.60;1.73;;;10.00;64.70;;;;;;5093312;28;20039;-71
2022/01/30 05:15:11;;;;;;;4.88;1.40;;;9.90;64.20;;;;;;5093607;28;20016;-71
2022/01/30 05:17:37;;;;;;;2.58;1.00;;;10.00;64.60;;;;;;5075404;28;20027;-71
2022/01/30 05:20:03;;;;;;;5.47;1.77;;;10.00;64.60;;;;;;5093345;28;20040;-71
2022/01/30 05:22:29;;;;;;;5.53;1.35;;;10.00;64.50;;;;;;5092917;28;20024;-71
2022/01/30 05:24:55;;;;;;;3.72;1.20;;;10.00;64.60;;;;;;5093440;28;20463;-71
2022/01/30 05:27:21;;;;;;;4.35;1.55;;;10.00;64.70;;;;;;5075200;28;20109;-71
2022/01/30 05:29:47;;;;;;;9.15;1.42;;;10.10;64.70;;;;;;5075298;28;20024;-71
2022/01/30 05:32:13;;;;;;;7.65;1.55;;;10.10;64.40;;;;;;5074740;28;20526;-71
2022/01/30 05:34:39;;;;;;;4.00;1.05;;;10.10;64.10;;;;;;5075308;28;20455;-72
2022/01/30 05:37:08;;;;;;;3.38;1.00;;;10.10;64.00;;;;;;5093065;28;20376;-72
2022/01/30 05:39:34;;;;;;;8.85;1.58;;;10.10;64.30;;;;;;5075117;28;20040;-71
2022/01/30 05:42:01;;;;;;;5.20;2.00;;;10.10;64.40;;;;;;5074848;28;20024;-71
2022/01/30 05:44:42;;;;;;;2.90;0.80;;;10.10;64.10;;;;;;5093538;28;20020;-73
2022/01/30 05:47:12;;;;;;;5.35;1.00;;;10.10;64.00;;;;;;5093323;28;20077;-72
2022/01/30 05:49:40;;;;;;;4.15;0.90;;;10.10;63.90;;;;;;5093287;28;20464;-72
2022/01/30 05:52:06;;;;;;;6.38;1.30;;;10.10;63.60;;;;;;5093187;28;20024;-72
2022/01/30 05:54:32;;;;;;;4.90;1.38;;;10.20;63.40;;;;;;5093218;28;20024;-72
2022/01/30 05:56:58;;;;;;;2.00;1.08;;;10.10;63.00;;;;;;5093150;28;20016;-72
2022/01/30 05:59:23;;;;;;;1.40;0.93;;;10.20;63.50;;;;;;5093035;28;20033;-72
2022/01/30 06:01:49;;;;;;;6.15;0.95;;;10.10;63.20;;;;;;5074672;28;20482;-72
2022/01/30 06:04:15;;;;;;;2.65;1.20;;;10.20;63.20;;;;;;5075053;28;20107;-72
2022/01/30 06:06:49;;;;;;;3.40;1.00;;;10.10;62.90;;;;;;5074895;28;20392;-72
2022/01/30 06:11:44;;;;;;;6.13;1.13;;;10.10;63.00;;;;;;5093088;28;20462;-72
2022/01/30 06:14:10;;;;;;;4.93;1.23;;;10.10;63.00;;;;;;5092714;28;20490;-72
2022/01/30 06:16:36;;;;;;;5.65;1.08;;;10.10;63.00;;;;;;5092966;28;20020;-72
2022/01/30 06:19:02;;;;;;;9.02;1.70;;;10.10;62.70;;;;;;5074741;28;20093;-73
2022/01/30 06:21:28;;;;;;;6.38;1.40;;;10.10;62.50;;;;;;5093239;28;20107;-73
2022/01/30 06:23:55;;;;;;;6.10;1.38;;;10.00;61.90;;;;;;5092939;28;20028;-73
2022/01/30 06:26:20;;;;;;;4.07;1.40;;;10.10;62.10;;;;;;5074685;28;20020;-73
2022/01/30 06:28:46;;;;;;;5.95;1.23;;;10.10;61.80;;;;;;5074745;28;20535;-73
2022/01/30 06:31:12;;;;;;;6.80;1.65;;;10.10;62.00;;;;;;5092857;28;20508;-73
2022/01/30 06:33:38;;;;;;;5.80;1.45;;;10.10;61.20;;;;;;5074546;28;20076;-73
2022/01/30 06:36:04;;;;;;;6.00;1.63;;;10.10;61.40;;;;;;5096410;28;20382;-73
2022/01/30 06:38:30;;;;;;;6.28;1.67;;;10.00;61.30;;;;;;5078087;28;20032;-73
2022/01/30 06:40:55;;;;;;;6.95;1.90;;;10.00;61.60;;;;;;5096677;28;20024;-73
2022/01/30 06:43:22;;;;;;;7.75;1.88;;;10.00;61.30;;;;;;5078139;28;20024;-73
2022/01/30 06:45:48;;;;;;;11.57;2.30;;;10.00;61.10;;;;;;5096591;28;20036;-73
2022/01/30 06:48:20;;;;;;;7.65;1.92;;;10.10;62.30;;;;;;5096463;28;20036;-74
2022/01/30 06:50:46;;;;;;;6.47;1.88;;;10.10;61.10;;;;;;5077910;28;20181;-74
2022/01/30 06:53:12;;;;;;;9.10;2.03;;;10.10;60.90;;;;;;5077983;28;20107;-74
2022/01/30 06:55:42;;;;;;;6.25;1.90;;;10.10;61.00;;;;;;5095744;28;20520;-74
2022/01/30 06:58:13;;;;;;;11.25;2.58;;;10.10;61.00;;;;;;5078079;28;20028;-74
2022/01/30 07:00:39;;;;;;;5.35;1.60;;;10.20;61.00;;;;;;5095979;28;20044;-74
2022/01/30 07:03:05;;;;;;;8.20;1.75;;;10.20;61.30;;;;;;5077711;28;20086;-74
2022/01/30 07:05:31;;;;;;;9.93;2.47;;;10.20;61.10;;;;;;5096179;28;20034;-74
2022/01/30 07:07:56;;;;;;;7.80;1.65;;;10.20;61.20;;;;;;5095873;28;20454;-74
2022/01/30 07:10:23;;;;;;;6.93;2.35;;;10.30;61.10;;;;;;5095726;28;20035;-74
2022/01/30 07:12:49;;;;;;;11.75;2.58;;;10.30;61.10;;;;;;5077544;28;20413;-73
2022/01/30 07:15:15;;;;;;;8.88;2.33;;;10.30;61.10;;;;;;5077395;28;20031;-74
2022/01/30 07:17:42;;;;;;;5.57;1.58;;;10.30;61.10;;;;;;5095607;28;20031;-74
2022/01/30 07:20:08;;;;;;;8.38;2.00;;;10.30;61.00;;;;;;5095445;28;20038;-74
2022/01/30 07:22:35;;;;;;;8.50;2.25;;;10.40;60.50;;;;;;5077224;28;20073;-75
2022/01/30 07:25:02;;;;;;;9.10;2.10;;;10.40;60.60;;;;;;5095743;28;20028;-75
2022/01/30 07:27:28;;;;;;;8.23;2.20;;;10.40;60.30;;;;;;5077235;28;20036;-74
2022/01/30 07:29:54;;;;;;;12.60;2.50;;;10.40;60.20;;;;;;5077206;28;20455;-75
2022/01/30 07:32:20;;;;;;;8.85;2.17;;;10.40;60.10;;;;;;5095230;28;20499;-75
2022/01/30 07:34:49;;;;;;;10.43;2.60;;;10.40;60.10;;;;;;5095311;28;20023;-75
2022/01/30 07:37:15;;;;;;;9.52;1.70;;;10.50;60.00;;;;;;5094902;28;20436;-74
2022/01/30 07:39:43;;;;;;;12.55;2.45;;;10.50;59.80;;;;;;5076810;28;20481;-75
2022/01/30 07:42:08;;;;;;;7.78;2.20;;;10.50;59.40;;;;;;5076848;28;20028;-75
2022/01/30 07:44:34;;;;;;;7.90;2.35;;;10.50;58.60;;;;;;5094657;28;20035;-75
2022/01/30 07:47:00;;;;;;;9.30;2.45;;;10.50;58.20;;;;;;5095073;28;20058;-75
2022/01/30 07:49:26;;;;;;;9.93;2.38;;;10.40;58.20;;;;;;5093672;28;20391;-74
2022/01/30 07:51:53;;;;;;;9.05;2.25;;;10.40;58.60;;;;;;5093647;28;20035;-75
2022/01/30 07:54:19;;;;;;;8.10;1.75;;;10.40;58.20;;;;;;5094922;28;20103;-75
2022/01/30 07:56:45;;;;;;;11.07;2.40;;;10.40;58.10;;;;;;5094822;28;20030;-75
2022/01/30 07:59:11;;;;;;;5.88;1.77;;;10.40;58.60;;;;;;5094668;28;20464;-76
2022/01/30 08:01:37;;;;;;;8.38;1.92;;;10.50;58.90;;;;;;5094728;28;20417;-75
2022/01/30 08:04:06;;;;;;;11.38;2.30;;;10.50;58.90;;;;;;5094713;28;20024;-75
2022/01/30 08:06:33;;;;;;;13.93;2.58;;;10.50;58.50;;;;;;5093390;28;20467;-75
2022/01/30 08:08:59;;;;;;;6.47;1.67;;;10.50;57.80;;;;;;5076254;28;20542;-75
2022/01/30 08:11:24;;;;;;;9.65;2.55;;;10.60;57.40;;;;;;5092910;28;20110;-75
2022/01/30 08:13:50;;;;;;;8.75;2.22;;;10.60;57.30;;;;;;5094763;28;20030;-75
2022/01/30 08:16:16;;;;;;;13.63;1.98;;;10.60;57.30;;;;;;5093184;28;20032;-76
2022/01/30 08:18:42;;;;;;;23.25;2.30;;;10.60;56.60;;;;;;5094431;28;20028;-75
2022/01/30 08:21:08;;;;;;;7.75;1.90;;;10.50;56.30;;;;;;5093185;28;20460;-75
2022/01/30 08:23:34;;;;;;;12.77;2.60;;;10.50;56.30;;;;;;5094364;28;20046;-74
2022/01/30 08:26:00;;;;;;;7.60;2.03;;;10.60;55.90;;;;;;5093039;28;20463;-75
2022/01/30 08:28:26;;;;;;;12.77;2.25;;;10.60;56.40;;;;;;5093892;28;20025;-75
2022/01/30 08:30:52;;;;;;;15.80;2.53;;;10.60;56.10;;;;;;5093800;28;20100;-76
2022/01/30 08:33:18;;;;;;;11.27;2.63;;;10.60;56.00;;;;;;5093578;28;20048;-75
2022/01/30 08:35:45;;;;;;;9.98;2.33;;;10.60;55.50;;;;;;5093791;28;20099;-74
2022/01/30 08:38:13;;;;;;;5.47;1.73;;;10.60;55.90;;;;;;5093786;28;20050;-75
2022/01/30 08:40:39;;;;;;;6.95;2.30;;;10.60;56.40;;;;;;5093831;28;20024;-75
2022/01/30 08:43:05;;;;;;;11.77;2.47;;;10.70;56.60;;;;;;5092718;28;20481;-76
2022/01/30 08:45:31;;;;;;;7.43;1.95;;;10.80;56.60;;;;;;5094003;28;20020;-75
2022/01/30 08:47:57;;;;;;;14.57;2.58;;;10.90;56.80;;;;;;5092585;28;20062;-75
2022/01/30 08:50:24;;;;;;;6.88;2.20;;;10.90;55.40;;;;;;5093518;28;20112;-75
2022/01/30 08:52:50;;;;;;;11.27;2.45;;;11.00;56.10;;;;;;5092102;28;20024;-75
2022/01/30 08:55:17;;;;;;;5.40;1.63;;;11.00;54.80;;;;;;5092518;28;20020;-76
2022/01/30 08:57:43;;;;;;;12.60;2.47;;;11.10;55.40;;;;;;5074854;28;20024;-75
2022/01/30 09:00:12;;;;;;;9.00;2.65;;;11.10;54.60;;;;;;5092296;28;20118;-75
2022/01/30 09:02:38;;;;;;;12.48;2.22;;;11.10;55.30;;;;;;5092401;28;20038;-75
2022/01/30 09:05:10;;;;;;;8.73;2.35;;;11.00;54.00;;;;;;5093647;28;20120;-75
2022/01/30 09:07:37;;;;;;;10.27;2.38;;;11.00;54.10;;;;;;5093890;28;20062;-75
2022/01/30 09:10:06;;;;;;;12.20;2.50;;;11.00;53.70;;;;;;5093612;28;20032;-75
2022/01/30 09:12:34;;;;;;;13.48;2.75;;;11.10;54.10;;;;;;5092202;28;20028;-75
2022/01/30 09:15:00;;;;;;;8.63;2.13;;;11.10;54.40;;;;;;5092205;28;20028;-75
2022/01/30 09:17:28;;;;;;;11.45;2.70;;;11.20;54.70;;;;;;5093180;28;20031;-75
2022/01/30 09:19:54;;;;;;;11.02;1.95;;;11.30;53.80;;;;;;5090463;28;20043;-76
2022/01/30 09:22:20;;;;;;;15.20;2.70;;;11.40;54.00;;;;;;5054921;28;20077;-75
2022/01/30 09:24:47;;;;;;;10.93;2.45;;;11.40;52.60;;;;;;5055243;28;20032;-75
2022/01/30 09:27:14;;;;;;;12.38;2.95;;;11.50;51.50;;;;;;5055089;28;20082;-76
2022/01/30 09:29:40;;;;;;;9.95;2.38;;;11.50;51.50;;;;;;5054924;28;20059;-76
2022/01/30 09:32:07;;;;;;;20.65;2.55;;;11.50;51.80;;;;;;5054936;28;20056;-76
2022/01/30 09:34:34;;;;;;;10.70;2.40;;;11.50;51.20;;;;;;5073441;28;20372;-77
2022/01/30 09:37:00;;;;;;;10.05;2.35;;;11.50;51.20;;;;;;5055175;28;20033;-76
2022/01/30 09:39:26;;;;;;;9.50;2.35;;;11.40;51.30;;;;;;5055072;28;20434;-76
2022/01/30 09:41:53;;;;;;;10.80;2.10;;;11.40;50.20;;;;;;5073121;28;20052;-77
2022/01/30 09:44:20;;;;;;;17.38;2.88;;;11.40;50.30;;;;;;5054822;28;20028;-76
2022/01/30 09:46:47;;;;;;;18.45;3.10;;;11.30;49.00;;;;;;5054948;28;20032;-76
2022/01/30 09:49:14;;;;;;;8.02;2.53;;;11.30;49.40;;;;;;5073019;28;20491;-77
2022/01/30 09:51:43;;;;;;;11.95;1.88;;;11.30;49.50;;;;;;5072590;28;20468;-77
2022/01/30 09:54:09;;;;;;;14.23;2.53;;;11.20;48.80;;;;;;5073223;28;20020;-76
2022/01/30 09:56:36;;;;;;;10.00;1.83;;;11.20;47.70;;;;;;5054951;28;20348;-77
2022/01/30 09:59:02;;;;;;;10.45;2.22;;;11.20;48.60;;;;;;5054821;28;20059;-77
2022/01/30 10:01:30;;;;;;;29.27;3.85;;;11.20;49.10;;;;;;5072733;28;20021;-77
2022/01/30 10:03:56;;;;;;;13.77;2.25;;;11.20;49.20;;;;;;5072858;28;20467;-77
2022/01/30 10:06:25;;;;;;;10.77;2.53;;;11.20;49.60;;;;;;5054881;28;20028;-77
2022/01/30 10:08:55;;;;;;;11.68;2.45;;;11.30;48.80;;;;;;5074843;28;20399;-77
2022/01/30 10:11:33;;;;;;;16.05;2.75;;;11.20;48.00;;;;;;5076696;28;20486;-78
2022/01/30 10:14:17;;;;;;;12.18;2.30;;;11.30;48.40;;;;;;5058760;28;20487;-78
2022/01/30 10:16:46;;;;;;;15.07;2.17;;;11.30;49.20;;;;;;5058795;28;20028;-78
2022/01/30 10:19:21;;;;;;;9.48;2.50;;;11.30;48.70;;;;;;5066052;28;20496;-78
2022/01/30 10:22:08;;;;;;;9.93;2.38;;;11.30;47.30;;;;;;5078478;28;20088;-77
2022/01/30 10:24:43;;;;;;;13.32;2.70;;;11.40;46.90;;;;;;5078537;28;20036;-78
2022/01/30 10:27:21;;;;;;;14.15;3.03;;;11.30;45.60;;;;;;5095439;28;20032;-77
2022/01/30 10:30:05;;;;;;;12.07;2.60;;;11.20;45.40;;;;;;5078322;28;20035;-77
2022/01/30 10:32:32;;;;;;;14.88;2.40;;;11.10;45.40;;;;;;5077813;28;20052;-78
2022/01/30 10:35:04;;;;;;;13.75;2.92;;;11.10;45.80;;;;;;5096512;28;20035;-77
2022/01/30 10:37:30;;;;;;;7.93;2.05;;;11.10;46.10;;;;;;5078052;28;20024;-74
2022/01/30 10:39:58;;;;;;;9.65;2.28;;;11.20;46.90;;;;;;5094972;28;20479;-74
2022/01/30 10:42:41;;;;;;;15.65;3.00;;;11.20;46.90;;;;;;5096321;28;20031;-73
2022/01/30 10:45:23;;;;;;;9.98;1.80;;;11.30;46.30;;;;;;5078032;28;20028;-73
2022/01/30 10:47:49;;;;;;;14.25;3.17;;;11.30;45.40;;;;;;5095990;28;20031;-72
2022/01/30 10:50:17;;;;;;;7.68;1.75;;;11.30;45.70;;;;;;5096218;28;20028;-71
2022/01/30 10:52:55;;;;;;;10.85;2.28;;;11.30;45.50;;;;;;5077958;28;20032;-72
2022/01/30 10:55:40;;;;;;;5.57;1.73;;;11.30;45.80;;;;;;5095868;28;20535;-72
2022/01/30 10:58:12;;;;;;;12.95;2.47;;;11.30;46.60;;;;;;5096000;28;20149;-71
2022/01/30 11:00:38;;;;;;;10.77;2.05;;;11.40;47.00;;;;;;5077808;28;20387;-71
2022/01/30 11:03:05;;;;;;;7.43;1.90;;;11.40;44.90;;;;;;5095629;28;20028;-71
2022/01/30 11:05:33;;;;;;;10.07;2.30;;;11.40;44.40;;;;;;5077693;28;20031;-72
2022/01/30 11:07:58;;;;;;;8.23;1.60;;;11.30;43.00;;;;;;5094568;28;20020;-72
2022/01/30 11:10:27;;;;;;;8.98;2.50;;;11.20;44.00;;;;;;5095551;28;20574;-71
2022/01/30 11:13:07;;;;;;;10.98;2.17;;;11.20;44.10;;;;;;5096044;28;20106;-71
2022/01/30 11:15:38;;;;;;;10.38;2.40;;;11.20;45.10;;;;;;5077575;28;20028;-71
2022/01/30 11:18:05;;;;;;;9.95;1.92;;;11.20;44.80;;;;;;5077441;28;20028;-71
2022/01/30 11:20:32;;;;;;;7.13;1.88;;;11.30;44.40;;;;;;5076502;28;20123;-71
2022/01/30 11:23:01;;;;;;;12.93;3.03;;;11.30;45.20;;;;;;5095867;28;20478;-71
2022/01/30 11:25:35;;;;;;;10.25;2.25;;;11.40;45.00;;;;;;5077309;28;20028;-70
2022/01/30 11:28:04;;;;;;;11.57;2.22;;;11.40;42.60;;;;;;5077215;28;20021;-70
2022/01/30 11:30:34;;;;;;;9.25;1.90;;;11.40;42.90;;;;;;5077136;28;20038;-70
2022/01/30 11:33:00;;;;;;;9.35;2.08;;;11.30;42.80;;;;;;5076920;28;20457;-71
2022/01/30 11:35:27;;;;;;;14.73;2.42;;;11.30;42.40;;;;;;5077133;28;20028;-71
2022/01/30 11:37:54;;;;;;;10.43;2.33;;;11.30;43.60;;;;;;5077174;28;20078;-72
2022/01/30 11:40:20;;;;;;;12.88;2.08;;;11.20;42.60;;;;;;5076905;28;20495;-71
2022/01/30 11:42:49;;;;;;;12.57;2.40;;;11.20;43.10;;;;;;5095185;28;20020;-71
2022/01/30 11:45:32;;;;;;;13.50;3.15;;;11.20;42.80;;;;;;5094937;28;20518;-71
2022/01/30 11:48:03;;;;;;;8.30;2.40;;;11.20;43.60;;;;;;5095181;28;20352;-71
2022/01/30 11:50:33;;;;;;;14.63;2.88;;;11.20;44.30;;;;;;5076942;28;20058;-71
2022/01/30 11:53:04;;;;;;;11.02;2.60;;;11.10;42.30;;;;;;5076780;28;20483;-71
2022/01/30 11:55:50;;;;;;;12.35;2.45;;;11.10;42.80;;;;;;5094989;28;20032;-70
2022/01/30 11:58:35;;;;;;;8.00;2.00;;;11.10;42.90;;;;;;5094610;28;20034;-71
2022/01/30 12:01:05;;;;;;;10.23;3.17;;;11.10;43.80;;;;;;5076672;28;20027;-71
2022/01/30 12:03:35;;;;;;;12.02;2.83;;;11.10;44.00;;;;;;5076583;28;20026;-71
2022/01/30 12:06:19;;;;;;;13.50;2.75;;;11.10;43.20;;;;;;5094679;28;20022;-71
2022/01/30 12:08:48;;;;;;;11.40;2.65;;;11.10;43.40;;;;;;5076527;28;20031;-71
2022/01/30 12:11:43;;;;;;;8.98;2.65;;;11.10;44.30;;;;;;5076477;28;20549;-71
2022/01/30 12:14:10;;;;;;;12.23;2.00;;;11.00;43.60;;;;;;5076420;28;20096;-71
2022/01/30 12:16:48;;;;;;;12.60;2.38;;;11.00;43.90;;;;;;5076228;28;20016;-71
2022/01/30 12:19:18;;;;;;;9.35;1.95;;;11.00;43.70;;;;;;5094410;28;20035;-70
2022/01/30 12:21:44;;;;;;;12.07;2.10;;;11.00;43.90;;;;;;5094418;28;20024;-71
2022/01/30 12:24:28;;;;;;;11.45;2.10;;;11.00;43.70;;;;;;5094006;28;20032;-71
2022/01/30 12:27:00;;;;;;;9.27;2.05;;;11.00;44.50;;;;;;5076278;28;20094;-71
2022/01/30 12:29:36;;;;;;;18.98;3.13;;;10.90;43.90;;;;;;5076084;28;20471;-71
2022/01/30 12:32:23;;;;;;;8.60;1.92;;;10.90;44.50;;;;;;5073263;28;20039;-70
2022/01/30 12:35:01;;;;;;;5.65;1.75;;;10.90;44.50;;;;;;5055948;28;20140;-70
2022/01/30 12:37:33;;;;;;;12.70;2.50;;;10.80;43.90;;;;;;5056026;28;20481;-70
2022/01/30 12:40:01;;;;;;;8.45;2.53;;;10.80;43.80;;;;;;5073825;28;20036;-70
2022/01/30 12:42:32;;;;;;;6.28;2.03;;;10.80;45.00;;;;;;5073411;28;20021;-71
2022/01/30 12:45:03;;;;;;;12.38;2.85;;;10.90;45.30;;;;;;5073643;28;20103;-70
2022/01/30 12:47:29;;;;;;;14.10;2.15;;;10.90;44.20;;;;;;5055728;28;20035;-71
2022/01/30 12:49:59;;;;;;;13.25;2.20;;;10.90;43.70;;;;;;5055700;28;20115;-70
2022/01/30 12:54:58;;;;;;;16.00;2.55;;;10.90;43.50;;;;;;5073642;28;20031;-70
2022/01/30 12:57:26;;;;;;;10.07;2.45;;;10.90;43.50;;;;;;5073650;28;20059;-70
2022/01/30 12:59:57;;;;;;;12.07;2.47;;;10.80;43.20;;;;;;5055534;28;20414;-70
2022/01/30 13:02:25;;;;;;;12.00;2.13;;;10.90;43.30;;;;;;5073599;28;20028;-70
2022/01/30 13:05:00;;;;;;;13.65;3.15;;;11.00;44.10;;;;;;5073106;28;20041;-70
2022/01/30 13:07:26;;;;;;;6.18;1.88;;;11.10;43.40;;;;;;5055427;28;20043;-70
2022/01/30 13:10:15;;;;;;;13.63;2.10;;;11.20;43.30;;;;;;5073306;28;20441;-70
2022/01/30 13:12:45;;;;;;;7.13;2.15;;;11.20;41.40;;;;;;5055459;28;20112;-70
2022/01/30 13:15:22;;;;;;;9.68;2.10;;;11.30;41.70;;;;;;5072974;28;20495;-70
2022/01/30 13:17:49;;;;;;;11.82;2.35;;;11.30;41.30;;;;;;5073412;28;20031;-70
2022/01/30 13:20:20;;;;;;;9.50;1.95;;;11.30;41.00;;;;;;5055132;28;20030;-70
2022/01/30 13:22:46;;;;;;;12.57;1.63;;;11.30;41.20;;;;;;5055034;28;20082;-70
2022/01/30 13:25:15;;;;;;;10.05;2.60;;;11.30;41.50;;;;;;5055184;28;20021;-71
2022/01/30 13:27:49;;;;;;;6.32;2.15;;;11.30;41.20;;;;;;5073178;28;20029;-72
2022/01/30 13:30:22;;;;;;;9.85;1.92;;;11.40;41.60;;;;;;5055164;28;20494;-70
2022/01/30 13:32:49;;;;;;;9.10;1.73;;;11.40;41.10;;;;;;5072830;28;20482;-70
2022/01/30 13:35:17;;;;;;;9.80;1.98;;;11.40;40.80;;;;;;5055174;28;20037;-70
2022/01/30 13:37:45;;;;;;;8.15;1.88;;;11.30;40.40;;;;;;5073107;28;20054;-70
2022/01/30 13:40:20;;;;;;;9.43;2.08;;;11.30;40.50;;;;;;5073043;28;20024;-71
2022/01/30 13:47:57;;;;;;;7.78;2.35;;;11.30;40.50;;;;;;5077196;28;20029;-70